sensor_id;sensor_type;location;lat;lon;timestamp;pressure;altitude;pressure_sealevel;temperature;humidity
57827;BME280;43656;57.746;11.780;2023-09-19T00:00:42;99516.16;;;21.15;100.00
57827;BME280;43656;57.746;11.780;2023-09-19T00:03:09;99503.59;;;21.14;100.00
57827;BME280;43656;57.746;11.780;2023-09-19T00:05:36;99501.16;;;21.12;100.00
57827;BME280;43656;57.746;11.780;2023-09-19T00:08:02;99494.19;;;21.20;100.00
57827;BME280;43656;57.746;11.780;2023-09-19T00:10:29;99502.41;;;21.20;100.00
57827;BME280;43656;57.746;11.780;2023-09-19T00:12:57;99523.69;;;21.23;100.00
57827;BME280;43656;57.746;11.780;2023-09-19T00:15:25;99517.16;;;21.19;100.00
57827;BME280;43656;57.746;11.780;2023-09-19T00:17:54;99520.81;;;21.14;100.00
57827;BME280;43656;57.746;11.780;2023-09-19T00:20:19;99521.22;;;21.21;100.00
57827;BME280;43656;57.746;11.780;2023-09-19T00:22:48;99528.28;;;21.08;100.00
57827;BME280;43656;57.746;11.780;2023-09-19T00:25:14;99518.06;;;21.00;100.00
57827;BME280;43656;57.746;11.780;2023-09-19T00:27:41;99508.53;;;20.98;100.00
57827;BME280;43656;57.746;11.780;2023-09-19T00:30:08;99501.06;;;21.03;100.00
57827;BME280;43656;57.746;11.780;2023-09-19T00:32:54;99486.66;;;20.98;100.00
57827;BME280;43656;57.746;11.780;2023-09-19T00:35:23;99495.41;;;21.14;100.00
57827;BME280;43656;57.746;11.780;2023-09-19T00:37:52;99508.47;;;21.17;100.00
57827;BME280;43656;57.746;11.780;2023-09-19T00:40:19;99496.13;;;21.19;100.00
57827;BME280;43656;57.746;11.780;2023-09-19T00:42:45;99496.13;;;21.19;100.00
57827;BME280;43656;57.746;11.780;2023-09-19T00:45:12;99493.25;;;21.10;100.00
57827;BME280;43656;57.746;11.780;2023-09-19T00:47:48;99477.06;;;21.14;100.00
57827;BME280;43656;57.746;11.780;2023-09-19T00:50:16;99482.94;;;21.21;100.00
57827;BME280;43656;57.746;11.780;2023-09-19T00:52:43;99484.47;;;21.14;100.00
57827;BME280;43656;57.746;11.780;2023-09-19T00:55:10;99471.28;;;21.16;100.00
57827;BME280;43656;57.746;11.780;2023-09-19T00:57:37;99467.13;;;21.18;100.00
57827;BME280;43656;57.746;11.780;2023-09-19T01:00:04;99454.84;;;21.16;100.00
57827;BME280;43656;57.746;11.780;2023-09-19T01:02:32;99453.84;;;21.11;100.00
57827;BME280;43656;57.746;11.780;2023-09-19T01:04:58;99453.34;;;21.09;100.00
57827;BME280;43656;57.746;11.780;2023-09-19T01:07:25;99442.22;;;21.06;100.00
57827;BME280;43656;57.746;11.780;2023-09-19T01:09:50;99447.38;;;21.07;100.00
57827;BME280;43656;57.746;11.780;2023-09-19T01:12:22;99440.97;;;20.98;100.00
57827;BME280;43656;57.746;11.780;2023-09-19T01:15:38;99425.88;;;21.01;100.00
57827;BME280;43656;57.746;11.780;2023-09-19T01:18:17;99425.75;;;20.92;100.00
57827;BME280;43656;57.746;11.780;2023-09-19T01:23:28;99412.41;;;20.91;100.00
57827;BME280;43656;57.746;11.780;2023-09-19T01:29:12;99396.19;;;20.80;100.00
57827;BME280;43656;57.746;11.780;2023-09-19T01:31:40;99397.59;;;20.78;100.00
57827;BME280;43656;57.746;11.780;2023-09-19T01:34:08;99398.41;;;20.78;100.00
57827;BME280;43656;57.746;11.780;2023-09-19T01:36:37;99385.44;;;20.70;100.00
57827;BME280;43656;57.746;11.780;2023-09-19T01:39:11;99385.03;;;20.77;100.00
57827;BME280;43656;57.746;11.780;2023-09-19T01:42:03;99370.66;;;20.71;100.00
57827;BME280;43656;57.746;11.780;2023-09-19T01:44:44;99378.44;;;20.78;100.00
57827;BME280;43656;57.746;11.780;2023-09-19T01:47:29;99382.19;;;20.82;100.00
57827;BME280;43656;57.746;11.780;2023-09-19T01:53:00;99374.94;;;20.91;100.00
57827;BME280;43656;57.746;11.780;2023-09-19T01:55:30;99370.56;;;20.90;100.00
57827;BME280;43656;57.746;11.780;2023-09-19T01:58:07;99362.88;;;20.92;100.00
57827;BME280;43656;57.746;11.780;2023-09-19T02:00:36;99351.44;;;20.90;100.00
57827;BME280;43656;57.746;11.780;2023-09-19T02:03:03;99344.44;;;20.84;100.00
57827;BME280;43656;57.746;11.780;2023-09-19T02:05:28;99351.44;;;20.90;100.00
57827;BME280;43656;57.746;11.780;2023-09-19T02:07:54;99347.28;;;20.93;100.00
57827;BME280;43656;57.746;11.780;2023-09-19T02:10:21;99338.84;;;20.89;100.00
57827;BME280;43656;57.746;11.780;2023-09-19T02:12:47;99327.13;;;20.88;100.00
57827;BME280;43656;57.746;11.780;2023-09-19T02:15:13;99334.44;;;20.93;100.00
57827;BME280;43656;57.746;11.780;2023-09-19T02:17:42;99331.38;;;20.95;100.00
57827;BME280;43656;57.746;11.780;2023-09-19T02:20:09;99312.63;;;20.88;100.00
57827;BME280;43656;57.746;11.780;2023-09-19T02:22:41;99314.25;;;20.89;100.00
57827;BME280;43656;57.746;11.780;2023-09-19T02:25:07;99324.19;;;20.85;100.00
57827;BME280;43656;57.746;11.780;2023-09-19T02:27:34;99318.81;;;20.94;100.00
57827;BME280;43656;57.746;11.780;2023-09-19T02:29:59;99311.44;;;20.94;100.00
57827;BME280;43656;57.746;11.780;2023-09-19T02:32:27;99315.16;;;20.98;100.00
57827;BME280;43656;57.746;11.780;2023-09-19T02:34:55;99308.91;;;20.98;100.00
57827;BME280;43656;57.746;11.780;2023-09-19T02:37:21;99296.63;;;20.95;100.00
57827;BME280;43656;57.746;11.780;2023-09-19T02:39:46;99297.66;;;20.99;100.00
57827;BME280;43656;57.746;11.780;2023-09-19T02:42:12;99296.03;;;20.98;100.00
57827;BME280;43656;57.746;11.780;2023-09-19T02:44:37;99290.28;;;21.00;100.00
57827;BME280;43656;57.746;11.780;2023-09-19T02:47:03;99283.78;;;20.96;100.00
57827;BME280;43656;57.746;11.780;2023-09-19T02:49:29;99277.28;;;21.05;100.00
57827;BME280;43656;57.746;11.780;2023-09-19T02:51:54;99273.94;;;21.08;100.00
57827;BME280;43656;57.746;11.780;2023-09-19T02:54:20;99267.59;;;20.99;100.00
57827;BME280;43656;57.746;11.780;2023-09-19T02:56:46;99261.59;;;20.97;100.00
57827;BME280;43656;57.746;11.780;2023-09-19T02:59:12;99261.09;;;20.95;100.00
57827;BME280;43656;57.746;11.780;2023-09-19T03:01:38;99263.75;;;20.86;100.00
57827;BME280;43656;57.746;11.780;2023-09-19T03:04:04;99252.28;;;20.84;100.00
57827;BME280;43656;57.746;11.780;2023-09-19T03:06:31;99244.81;;;20.90;100.00
57827;BME280;43656;57.746;11.780;2023-09-19T03:08:57;99248.34;;;20.91;100.00
57827;BME280;43656;57.746;11.780;2023-09-19T03:11:25;99239.22;;;20.81;100.00
57827;BME280;43656;57.746;11.780;2023-09-19T03:13:52;99228.81;;;20.83;100.00
57827;BME280;43656;57.746;11.780;2023-09-19T03:16:17;99233.88;;;20.76;100.00
57827;BME280;43656;57.746;11.780;2023-09-19T03:18:44;99230.63;;;20.74;100.00
57827;BME280;43656;57.746;11.780;2023-09-19T03:21:10;99228.59;;;20.66;100.00
57827;BME280;43656;57.746;11.780;2023-09-19T03:23:35;99208.78;;;20.60;100.00
57827;BME280;43656;57.746;11.780;2023-09-19T03:26:01;99213.72;;;20.45;100.00
57827;BME280;43656;57.746;11.780;2023-09-19T03:28:26;99214.53;;;20.59;100.00
57827;BME280;43656;57.746;11.780;2023-09-19T03:31:05;99210.00;;;20.54;100.00
57827;BME280;43656;57.746;11.780;2023-09-19T03:33:31;99216.97;;;20.60;100.00
57827;BME280;43656;57.746;11.780;2023-09-19T03:35:58;99207.25;;;20.54;100.00
57827;BME280;43656;57.746;11.780;2023-09-19T03:38:27;99187.19;;;20.45;100.00
57827;BME280;43656;57.746;11.780;2023-09-19T03:40:54;99198.16;;;20.59;100.00
57827;BME280;43656;57.746;11.780;2023-09-19T03:43:19;99210.81;;;20.55;100.00
57827;BME280;43656;57.746;11.780;2023-09-19T03:45:45;99199.66;;;20.65;100.00
57827;BME280;43656;57.746;11.780;2023-09-19T03:48:13;99202.09;;;20.67;100.00
57827;BME280;43656;57.746;11.780;2023-09-19T03:50:39;99203.81;;;20.62;100.00
57827;BME280;43656;57.746;11.780;2023-09-19T03:53:04;99205.84;;;20.57;100.00
57827;BME280;43656;57.746;11.780;2023-09-19T03:55:32;99188.75;;;20.51;100.00
57827;BME280;43656;57.746;11.780;2023-09-19T03:58:00;99204.34;;;20.51;100.00
57827;BME280;43656;57.746;11.780;2023-09-19T04:00:26;99207.47;;;20.58;100.00
57827;BME280;43656;57.746;11.780;2023-09-19T04:02:52;99204.59;;;20.49;100.00
57827;BME280;43656;57.746;11.780;2023-09-19T04:05:18;99205.44;;;20.50;100.00
57827;BME280;43656;57.746;11.780;2023-09-19T04:07:44;99200.19;;;20.53;100.00
57827;BME280;43656;57.746;11.780;2023-09-19T04:10:10;99209.69;;;20.56;100.00
57827;BME280;43656;57.746;11.780;2023-09-19T04:12:37;99196.72;;;20.48;100.00
57827;BME280;43656;57.746;11.780;2023-09-19T04:15:05;99206.84;;;20.47;100.00
57827;BME280;43656;57.746;11.780;2023-09-19T04:17:30;99197.13;;;20.41;100.00
57827;BME280;43656;57.746;11.780;2023-09-19T04:19:58;99204.91;;;20.48;100.00
57827;BME280;43656;57.746;11.780;2023-09-19T04:22:23;99197.91;;;20.41;100.00
57827;BME280;43656;57.746;11.780;2023-09-19T04:24:50;99187.19;;;20.45;100.00
57827;BME280;43656;57.746;11.780;2023-09-19T04:27:15;99196.72;;;20.48;100.00
57827;BME280;43656;57.746;11.780;2023-09-19T04:29:41;99192.66;;;20.45;100.00
57827;BME280;43656;57.746;11.780;2023-09-19T04:32:07;99184.78;;;20.44;100.00
57827;BME280;43656;57.746;11.780;2023-09-19T04:34:33;99171.94;;;20.30;100.00
57827;BME280;43656;57.746;11.780;2023-09-19T04:37:00;99186.69;;;20.29;100.00
57827;BME280;43656;57.746;11.780;2023-09-19T04:39:26;99186.41;;;20.31;100.00
57827;BME280;43656;57.746;11.780;2023-09-19T04:41:52;99192.75;;;20.26;100.00
57827;BME280;43656;57.746;11.780;2023-09-19T04:44:18;99175.44;;;20.03;100.00
57827;BME280;43656;57.746;11.780;2023-09-19T04:46:43;99203.06;;;20.15;100.00
57827;BME280;43656;57.746;11.780;2023-09-19T04:49:09;99209.66;;;20.14;100.00
57827;BME280;43656;57.746;11.780;2023-09-19T04:51:35;99207.69;;;20.01;100.00
57827;BME280;43656;57.746;11.780;2023-09-19T04:54:01;99223.88;;;19.98;100.00
57827;BME280;43656;57.746;11.780;2023-09-19T04:56:28;99192.25;;;19.64;100.00
57827;BME280;43656;57.746;11.780;2023-09-19T04:58:58;99228.03;;;19.76;100.00
57827;BME280;43656;57.746;11.780;2023-09-19T05:01:24;99213.47;;;19.67;100.00
57827;BME280;43656;57.746;11.780;2023-09-19T05:03:49;99236.97;;;19.63;100.00
57827;BME280;43656;57.746;11.780;2023-09-19T05:06:18;99235.72;;;19.55;100.00
57827;BME280;43656;57.746;11.780;2023-09-19T05:08:46;99245.53;;;19.56;100.00
57827;BME280;43656;57.746;11.780;2023-09-19T05:11:14;99234.28;;;19.44;100.00
57827;BME280;43656;57.746;11.780;2023-09-19T05:13:40;99248.34;;;19.51;100.00
57827;BME280;43656;57.746;11.780;2023-09-19T05:16:05;99251.34;;;19.49;100.00
57827;BME280;43656;57.746;11.780;2023-09-19T05:18:31;99246.94;;;19.35;100.00
57827;BME280;43656;57.746;11.780;2023-09-19T05:20:56;99252.69;;;19.33;100.00
57827;BME280;43656;57.746;11.780;2023-09-19T05:23:22;99245.72;;;19.27;100.00
57827;BME280;43656;57.746;11.780;2023-09-19T05:25:47;99245.00;;;19.16;100.00
57827;BME280;43656;57.746;11.780;2023-09-19T05:28:13;99256.16;;;19.20;100.00
57827;BME280;43656;57.746;11.780;2023-09-19T05:30:40;99267.88;;;19.20;100.00
57827;BME280;43656;57.746;11.780;2023-09-19T05:33:08;99265.00;;;19.12;100.00
57827;BME280;43656;57.746;11.780;2023-09-19T05:35:34;99262.84;;;19.09;100.00
57827;BME280;43656;57.746;11.780;2023-09-19T05:38:05;99271.09;;;19.04;100.00
57827;BME280;43656;57.746;11.780;2023-09-19T05:40:34;99285.47;;;19.09;100.00
57827;BME280;43656;57.746;11.780;2023-09-19T05:43:00;99273.66;;;18.95;100.00
57827;BME280;43656;57.746;11.780;2023-09-19T05:45:25;99277.25;;;18.90;100.00
57827;BME280;43656;57.746;11.780;2023-09-19T05:47:52;99286.00;;;18.87;100.00
57827;BME280;43656;57.746;11.780;2023-09-19T05:50:26;99289.72;;;18.96;100.00
57827;BME280;43656;57.746;11.780;2023-09-19T05:52:53;99303.00;;;19.03;100.00
57827;BME280;43656;57.746;11.780;2023-09-19T05:55:18;99297.75;;;18.88;100.00
57827;BME280;43656;57.746;11.780;2023-09-19T05:57:49;99309.97;;;18.90;100.00
57827;BME280;43656;57.746;11.780;2023-09-19T06:00:16;99313.03;;;18.84;100.00
57827;BME280;43656;57.746;11.780;2023-09-19T06:02:44;99311.84;;;18.66;100.00
57827;BME280;43656;57.746;11.780;2023-09-19T06:05:10;99323.78;;;18.75;100.00
57827;BME280;43656;57.746;11.780;2023-09-19T06:07:36;99333.22;;;18.83;100.00
57827;BME280;43656;57.746;11.780;2023-09-19T06:10:03;99339.09;;;18.66;100.00
57827;BME280;43656;57.746;11.780;2023-09-19T06:12:31;99317.03;;;18.38;100.00
57827;BME280;43656;57.746;11.780;2023-09-19T06:14:58;99343.97;;;18.40;97.80
57827;BME280;43656;57.746;11.780;2023-09-19T06:17:25;99364.50;;;18.27;97.34
57827;BME280;43656;57.746;11.780;2023-09-19T06:19:52;99344.25;;;18.04;98.63
57827;BME280;43656;57.746;11.780;2023-09-19T06:22:18;99350.59;;;17.94;99.54
57827;BME280;43656;57.746;11.780;2023-09-19T06:24:44;99363.19;;;17.85;100.00
57827;BME280;43656;57.746;11.780;2023-09-19T06:27:10;99362.38;;;17.84;100.00
57827;BME280;43656;57.746;11.780;2023-09-19T06:29:35;99367.00;;;17.84;100.00
57827;BME280;43656;57.746;11.780;2023-09-19T06:32:09;99354.19;;;17.84;100.00
57827;BME280;43656;57.746;11.780;2023-09-19T06:34:35;99352.59;;;17.83;100.00
57827;BME280;43656;57.746;11.780;2023-09-19T06:37:01;99365.28;;;17.98;100.00
57827;BME280;43656;57.746;11.780;2023-09-19T06:39:28;99363.94;;;17.96;100.00
57827;BME280;43656;57.746;11.780;2023-09-19T06:41:53;99373.69;;;18.02;99.50
57827;BME280;43656;57.746;11.780;2023-09-19T06:44:19;99366.59;;;18.06;99.20
57827;BME280;43656;57.746;11.780;2023-09-19T06:46:47;99371.94;;;18.16;98.63
57827;BME280;43656;57.746;11.780;2023-09-19T06:49:15;99362.06;;;18.25;97.55
57827;BME280;43656;57.746;11.780;2023-09-19T06:51:41;99369.38;;;18.30;96.87
57827;BME280;43656;57.746;11.780;2023-09-19T06:54:07;99363.25;;;18.48;95.68
57827;BME280;43656;57.746;11.780;2023-09-19T06:56:32;99363.13;;;18.59;95.04
57827;BME280;43656;57.746;11.780;2023-09-19T06:58:58;99361.56;;;18.52;94.90
57827;BME280;43656;57.746;11.780;2023-09-19T07:01:23;99356.31;;;18.61;94.58
57827;BME280;43656;57.746;11.780;2023-09-19T07:03:50;99363.84;;;18.74;94.33
57827;BME280;43656;57.746;11.780;2023-09-19T07:06:15;99382.81;;;18.85;94.61
57827;BME280;43656;57.746;11.780;2023-09-19T07:08:41;99363.31;;;18.67;95.31
57827;BME280;43656;57.746;11.780;2023-09-19T07:11:06;99368.75;;;18.72;95.19
57827;BME280;43656;57.746;11.780;2023-09-19T07:13:32;99379.00;;;18.81;94.71
57827;BME280;43656;57.746;11.780;2023-09-19T07:15:58;99375.13;;;18.87;95.00
57827;BME280;43656;57.746;11.780;2023-09-19T07:18:24;99384.44;;;18.86;95.50
57827;BME280;43656;57.746;11.780;2023-09-19T07:21:09;99384.88;;;18.93;95.17
57827;BME280;43656;57.746;11.780;2023-09-19T07:23:40;99377.41;;;18.80;96.03
57827;BME280;43656;57.746;11.780;2023-09-19T07:26:06;99366.47;;;18.85;94.93
57827;BME280;43656;57.746;11.780;2023-09-19T07:28:31;99381.06;;;18.94;93.63
57827;BME280;43656;57.746;11.780;2023-09-19T07:31:01;99392.69;;;19.05;92.97
57827;BME280;43656;57.746;11.780;2023-09-19T07:33:28;99396.09;;;19.15;91.91
57827;BME280;43656;57.746;11.780;2023-09-19T07:35:54;99385.19;;;19.15;90.69
57827;BME280;43656;57.746;11.780;2023-09-19T07:38:19;99396.91;;;19.16;89.07
57827;BME280;43656;57.746;11.780;2023-09-19T07:40:46;99400.41;;;19.21;86.96
57827;BME280;43656;57.746;11.780;2023-09-19T07:43:11;99394.25;;;19.35;85.55
57827;BME280;43656;57.746;11.780;2023-09-19T07:45:37;99408.44;;;19.32;85.71
57827;BME280;43656;57.746;11.780;2023-09-19T07:48:02;99398.69;;;19.25;86.46
57827;BME280;43656;57.746;11.780;2023-09-19T07:50:29;99401.88;;;19.33;85.69
57827;BME280;43656;57.746;11.780;2023-09-19T07:52:55;99408.38;;;19.37;84.95
57827;BME280;43656;57.746;11.780;2023-09-19T07:55:22;99416.88;;;19.35;83.94
57827;BME280;43656;57.746;11.780;2023-09-19T07:57:54;99417.53;;;19.46;83.58
57827;BME280;43656;57.746;11.780;2023-09-19T08:00:19;99416.59;;;19.56;82.99
57827;BME280;43656;57.746;11.780;2023-09-19T08:02:46;99420.56;;;19.44;83.67
57827;BME280;43656;57.746;11.780;2023-09-19T08:05:13;99419.81;;;19.39;83.03
57827;BME280;43656;57.746;11.780;2023-09-19T08:07:44;99411.06;;;19.42;82.21
57827;BME280;43656;57.746;11.780;2023-09-19T08:10:14;99408.25;;;19.71;81.21
57827;BME280;43656;57.746;11.780;2023-09-19T08:12:44;99406.41;;;19.85;80.31
57827;BME280;43656;57.746;11.780;2023-09-19T08:15:16;99401.47;;;19.87;80.83
57827;BME280;43656;57.746;11.780;2023-09-19T08:17:42;99399.19;;;19.76;80.74
57827;BME280;43656;57.746;11.780;2023-09-19T08:20:09;99419.41;;;19.27;83.60
57827;BME280;43656;57.746;11.780;2023-09-19T08:22:46;99427.66;;;18.97;86.45
57827;BME280;43656;57.746;11.780;2023-09-19T08:25:12;99420.09;;;18.89;89.27
57827;BME280;43656;57.746;11.780;2023-09-19T08:27:38;99420.78;;;18.71;90.63
57827;BME280;43656;57.746;11.780;2023-09-19T08:30:04;99420.16;;;18.50;90.42
57827;BME280;43656;57.746;11.780;2023-09-19T08:32:29;99402.44;;;18.47;89.60
57827;BME280;43656;57.746;11.780;2023-09-19T08:34:55;99436.56;;;18.40;89.16
57827;BME280;43656;57.746;11.780;2023-09-19T08:37:20;99446.66;;;18.39;88.29
57827;BME280;43656;57.746;11.780;2023-09-19T08:39:46;99443.84;;;18.10;87.14
57827;BME280;43656;57.746;11.780;2023-09-19T08:42:12;99469.06;;;18.31;85.87
57827;BME280;43656;57.746;11.780;2023-09-19T08:44:38;99474.28;;;18.17;84.79
57827;BME280;43656;57.746;11.780;2023-09-19T08:47:15;99467.00;;;18.07;83.36
57827;BME280;43656;57.746;11.780;2023-09-19T08:50:01;99472.13;;;18.14;82.73
57827;BME280;43656;57.746;11.780;2023-09-19T08:52:37;99466.44;;;18.11;82.30
57827;BME280;43656;57.746;11.780;2023-09-19T08:55:06;99466.53;;;17.95;82.83
57827;BME280;43656;57.746;11.780;2023-09-19T08:57:36;99464.66;;;17.91;83.28
57827;BME280;43656;57.746;11.780;2023-09-19T09:00:04;99474.53;;;18.21;82.01
57827;BME280;43656;57.746;11.780;2023-09-19T09:02:40;99473.53;;;18.51;80.57
57827;BME280;43656;57.746;11.780;2023-09-19T09:05:08;99471.00;;;18.60;79.25
57827;BME280;43656;57.746;11.780;2023-09-19T09:07:40;99465.22;;;18.66;77.64
57827;BME280;43656;57.746;11.780;2023-09-19T09:10:06;99456.34;;;18.55;78.14
57827;BME280;43656;57.746;11.780;2023-09-19T09:12:32;99460.97;;;18.55;78.26
57827;BME280;43656;57.746;11.780;2023-09-19T09:14:58;99466.34;;;18.65;77.95
57827;BME280;43656;57.746;11.780;2023-09-19T09:17:26;99469.56;;;18.67;77.58
57827;BME280;43656;57.746;11.780;2023-09-19T09:19:52;99451.34;;;18.68;77.91
57827;BME280;43656;57.746;11.780;2023-09-19T09:22:18;99466.84;;;18.67;78.08
57827;BME280;43656;57.746;11.780;2023-09-19T09:24:57;99459.63;;;18.52;78.58
57827;BME280;43656;57.746;11.780;2023-09-19T09:27:30;99452.09;;;18.39;79.27
57827;BME280;43656;57.746;11.780;2023-09-19T09:29:58;99468.09;;;18.51;80.00
57827;BME280;43656;57.746;11.780;2023-09-19T09:32:30;99457.09;;;18.27;80.79
57827;BME280;43656;57.746;11.780;2023-09-19T09:35:00;99476.38;;;18.36;80.82
57827;BME280;43656;57.746;11.780;2023-09-19T09:37:26;99463.09;;;18.24;81.13
57827;BME280;43656;57.746;11.780;2023-09-19T09:40:01;99483.84;;;18.54;80.50
57827;BME280;43656;57.746;11.780;2023-09-19T09:42:50;99488.13;;;18.65;80.06
57827;BME280;43656;57.746;11.780;2023-09-19T09:45:22;99484.28;;;18.71;78.55
57827;BME280;43656;57.746;11.780;2023-09-19T09:48:03;99478.09;;;18.95;77.95
57827;BME280;43656;57.746;11.780;2023-09-19T09:50:35;99489.75;;;19.00;77.80
57827;BME280;43656;57.746;11.780;2023-09-19T09:53:27;99492.41;;;18.76;76.28
57827;BME280;43656;57.746;11.780;2023-09-19T09:56:05;99495.44;;;18.75;76.17
57827;BME280;43656;57.746;11.780;2023-09-19T09:58:32;99501.28;;;18.58;75.84
57827;BME280;43656;57.746;11.780;2023-09-19T10:00:59;99502.47;;;18.42;76.07
57827;BME280;43656;57.746;11.780;2023-09-19T10:03:38;99508.81;;;18.32;74.90
57827;BME280;43656;57.746;11.780;2023-09-19T10:06:15;99520.75;;;18.36;73.57
57827;BME280;43656;57.746;11.780;2023-09-19T10:11:44;99507.69;;;18.38;72.40
57827;BME280;43656;57.746;11.780;2023-09-19T10:14:15;99525.91;;;18.82;71.02
57827;BME280;43656;57.746;11.780;2023-09-19T10:16:48;99512.03;;;18.78;70.62
57827;BME280;43656;57.746;11.780;2023-09-19T10:19:48;99509.06;;;18.70;68.48
57827;BME280;43656;57.746;11.780;2023-09-19T10:22:23;99524.00;;;18.83;69.46
57827;BME280;43656;57.746;11.780;2023-09-19T10:24:50;99505.72;;;18.83;68.38
57827;BME280;43656;57.746;11.780;2023-09-19T10:27:19;99525.53;;;18.94;67.20
57827;BME280;43656;57.746;11.780;2023-09-19T10:29:48;99522.94;;;18.78;67.86
57827;BME280;43656;57.746;11.780;2023-09-19T10:32:16;99527.81;;;18.82;67.40
57827;BME280;43656;57.746;11.780;2023-09-19T10:34:46;99524.59;;;18.69;67.58
57827;BME280;43656;57.746;11.780;2023-09-19T10:37:12;99536.50;;;18.84;67.73
57827;BME280;43656;57.746;11.780;2023-09-19T10:39:39;99537.38;;;18.79;66.61
57827;BME280;43656;57.746;11.780;2023-09-19T10:42:06;99533.19;;;18.92;66.42
57827;BME280;43656;57.746;11.780;2023-09-19T10:44:37;99529.25;;;19.03;65.95
57827;BME280;43656;57.746;11.780;2023-09-19T10:47:07;99530.84;;;19.09;65.06
57827;BME280;43656;57.746;11.780;2023-09-19T10:49:34;99481.75;;;19.14;62.98
57827;BME280;43656;57.746;11.780;2023-09-19T10:52:00;99530.44;;;19.50;62.81
57827;BME280;43656;57.746;11.780;2023-09-19T10:54:31;99546.28;;;19.24;61.78
57827;BME280;43656;57.746;11.780;2023-09-19T10:56:59;99546.31;;;19.19;61.71
57827;BME280;43656;57.746;11.780;2023-09-19T10:59:26;99547.88;;;18.96;60.70
57827;BME280;43656;57.746;11.780;2023-09-19T11:01:59;99552.97;;;18.63;60.60
57827;BME280;43656;57.746;11.780;2023-09-19T11:04:33;99547.59;;;18.53;60.18
57827;BME280;43656;57.746;11.780;2023-09-19T11:15:02;99550.81;;;18.60;61.43
57827;BME280;43656;57.746;11.780;2023-09-19T11:30:49;99569.56;;;19.40;60.55
57827;BME280;43656;57.746;11.780;2023-09-19T11:33:30;99572.81;;;19.71;60.01
57827;BME280;43656;57.746;11.780;2023-09-19T11:43:48;99588.16;;;19.67;59.90
57827;BME280;43656;57.746;11.780;2023-09-19T11:46:16;99586.91;;;19.49;58.94
57827;BME280;43656;57.746;11.780;2023-09-19T11:48:47;99592.94;;;19.46;59.47
57827;BME280;43656;57.746;11.780;2023-09-19T11:51:14;99609.00;;;19.53;59.42
57827;BME280;43656;57.746;11.780;2023-09-19T11:53:46;99603.75;;;19.57;59.08
57827;BME280;43656;57.746;11.780;2023-09-19T11:56:15;99606.16;;;19.68;59.42
57827;BME280;43656;57.746;11.780;2023-09-19T11:58:50;99606.22;;;19.58;59.14
57827;BME280;43656;57.746;11.780;2023-09-19T12:01:25;99628.78;;;19.69;59.62
57827;BME280;43656;57.746;11.780;2023-09-19T12:03:55;99629.00;;;19.43;61.09
57827;BME280;43656;57.746;11.780;2023-09-19T12:06:23;99632.56;;;19.44;59.66
57827;BME280;43656;57.746;11.780;2023-09-19T12:08:48;99606.41;;;19.38;58.96
57827;BME280;43656;57.746;11.780;2023-09-19T12:11:18;99610.75;;;19.39;58.66
57827;BME280;43656;57.746;11.780;2023-09-19T12:13:46;99625.69;;;19.46;58.40
57827;BME280;43656;57.746;11.780;2023-09-19T12:16:19;99598.84;;;19.30;58.73
57827;BME280;43656;57.746;11.780;2023-09-19T12:18:48;99626.91;;;19.30;58.46
57827;BME280;43656;57.746;11.780;2023-09-19T12:21:29;99635.47;;;19.53;58.21
57827;BME280;43656;57.746;11.780;2023-09-19T12:26:27;99617.03;;;19.39;58.56
57827;BME280;43656;57.746;11.780;2023-09-19T12:28:55;99631.06;;;19.57;59.07
57827;BME280;43656;57.746;11.780;2023-09-19T12:31:21;99618.81;;;19.54;59.61
57827;BME280;43656;57.746;11.780;2023-09-19T12:33:53;99634.41;;;19.48;60.76
57827;BME280;43656;57.746;11.780;2023-09-19T12:36:20;99620.06;;;19.38;60.95
57827;BME280;43656;57.746;11.780;2023-09-19T12:38:50;99621.19;;;19.32;61.06
57827;BME280;43656;57.746;11.780;2023-09-19T12:41:16;99613.03;;;19.27;61.39
57827;BME280;43656;57.746;11.780;2023-09-19T12:43:42;99606.31;;;19.14;61.08
57827;BME280;43656;57.746;11.780;2023-09-19T12:46:08;99616.44;;;19.13;60.99
57827;BME280;43656;57.746;11.780;2023-09-19T12:48:33;99618.06;;;19.14;60.52
57827;BME280;43656;57.746;11.780;2023-09-19T12:51:03;99608.47;;;19.22;60.63
57827;BME280;43656;57.746;11.780;2023-09-19T12:53:32;99617.09;;;19.34;60.31
57827;BME280;43656;57.746;11.780;2023-09-19T12:55:59;99616.84;;;19.31;60.92
57827;BME280;43656;57.746;11.780;2023-09-19T12:58:25;99603.47;;;19.29;60.60
57827;BME280;43656;57.746;11.780;2023-09-19T13:00:52;99604.91;;;19.21;61.47
57827;BME280;43656;57.746;11.780;2023-09-19T13:03:18;99560.59;;;19.06;61.40
57827;BME280;43656;57.746;11.780;2023-09-19T13:06:03;99601.97;;;19.18;62.28
57827;BME280;43656;57.746;11.780;2023-09-19T13:08:38;99611.97;;;19.28;61.92
57827;BME280;43656;57.746;11.780;2023-09-19T13:11:10;99611.16;;;19.27;62.54
57827;BME280;43656;57.746;11.780;2023-09-19T13:13:40;99602.69;;;19.29;62.34
57827;BME280;43656;57.746;11.780;2023-09-19T13:16:07;99609.06;;;19.14;63.33
57827;BME280;43656;57.746;11.780;2023-09-19T13:18:50;99602.69;;;19.29;63.10
57827;BME280;43656;57.746;11.780;2023-09-19T13:21:17;99608.75;;;19.20;62.81
57827;BME280;43656;57.746;11.780;2023-09-19T13:23:54;99607.91;;;19.20;62.28
57827;BME280;43656;57.746;11.780;2023-09-19T13:26:27;99595.03;;;19.31;62.33
57827;BME280;43656;57.746;11.780;2023-09-19T13:28:56;99593.53;;;19.43;61.97
57827;BME280;43656;57.746;11.780;2023-09-19T13:31:21;99578.16;;;19.23;60.80
57827;BME280;43656;57.746;11.780;2023-09-19T13:33:48;99592.34;;;19.25;60.68
57827;BME280;43656;57.746;11.780;2023-09-19T13:36:14;99595.31;;;19.29;60.69